Ashuelot, New Hampshire
Current Conditions -  °F | °C
As of 1:35 AM on Thursday 29 Jan 2015 (Local Time) from KEEN Reporting Station
Clear Clear  
Wind Chill: -19°   Ceiling: Unl
Heat Index: -19°   Visibility: 10mi
Dew Point: -21°   Wind: 0mph
Humidity: 85%   Direction: NA
Pressure: 30.27"   Gusts: NA
Location:  42.78°N, 72.42°W
Report Text: KEEN 290635Z AUTO 00000KT 10SM CLR M19/M21 A3027 RMK AO1
Loading
Personal Weather Stations






























Interactive Weather Map New forecast layout! Learn more

10-Day Weather Forecast

Advertisements
Track Severe Weather on mobile